Time;durP1;ratioP1;P1;durP2;ratioP2;P2;SDS_P1;SDS_P2;PMS_P1;PMS_P2;Temp;Humidity;BMP_temperature;BMP_pressure;BME280_temperature;BME280_humidity;BME280_pressure;Samples;Min_cycle;Max_cycle;Signal;HPM_P1;HPM_P2
2023/08/31 07:14:29;;;;;;;;;;;;;;;14.64;100.00;100230.28;6990921;23;19927;-66
2023/08/31 07:17:25;;;;;;;12.17;6.67;;;;;;;14.99;100.00;100218.84;5917300;29;20335;-66
2023/08/31 07:20:20;;;;;;;14.07;6.53;;;;;;;15.16;100.00;100232.81;5904690;29;20574;-66
2023/08/31 07:23:15;;;;;;;11.10;6.43;;;;;;;15.25;100.00;100224.50;5908648;29;20187;-66
2023/08/31 07:26:11;;;;;;;10.73;7.43;;;;;;;14.92;100.00;100217.91;5911021;29;20028;-67
2023/08/31 07:29:06;;;;;;;15.57;6.77;;;;;;;14.65;100.00;100224.75;5913377;29;20040;-67
2023/08/31 07:32:02;;;;;;;17.83;6.73;;;;;;;14.50;100.00;100233.78;5912487;29;20067;-67
2023/08/31 07:34:58;;;;;;;12.70;6.32;;;;;;;14.27;100.00;100223.97;5912163;29;20439;-67
2023/08/31 07:37:53;;;;;;;12.60;6.47;;;;;;;14.45;100.00;100238.81;5912627;29;20029;-68
2023/08/31 07:40:48;;;;;;;11.67;6.00;;;;;;;14.34;100.00;100234.78;5911460;29;20647;-67
2023/08/31 07:43:44;;;;;;;9.63;5.43;;;;;;;14.16;100.00;100227.06;5910903;29;20061;-67
2023/08/31 07:46:39;;;;;;;11.20;5.73;;;;;;;14.39;100.00;100258.22;5911143;29;20285;-67
2023/08/31 07:49:34;;;;;;;10.50;5.60;;;;;;;14.32;100.00;100246.63;5912352;29;20044;-66
2023/08/31 07:52:30;;;;;;;9.37;5.50;;;;;;;14.35;100.00;100247.06;5911479;29;20035;-67
2023/08/31 07:55:25;;;;;;;8.30;5.28;;;;;;;14.36;100.00;100266.59;5910122;29;20040;-66
2023/08/31 07:58:21;;;;;;;8.40;5.10;;;;;;;14.48;100.00;100265.16;5911934;29;20055;-66
2023/08/31 08:01:17;;;;;;;7.07;3.67;;;;;;;14.41;100.00;100261.53;5910146;29;20127;-66
2023/08/31 08:04:12;;;;;;;8.07;4.10;;;;;;;14.47;100.00;100258.16;5910084;29;20044;-65
2023/08/31 08:07:08;;;;;;;6.73;4.17;;;;;;;14.68;100.00;100263.59;5911606;29;20499;-66
2023/08/31 08:10:04;;;;;;;6.85;3.85;;;;;;;15.32;100.00;100273.50;5910173;29;20037;-67
2023/08/31 08:12:59;;;;;;;7.68;3.35;;;;;;;15.65;98.57;100238.31;5909962;29;20570;-66
2023/08/31 08:15:54;;;;;;;6.47;3.40;;;;;;;15.70;95.31;100281.34;5910033;29;20075;-65
2023/08/31 08:18:50;;;;;;;4.87;3.10;;;;;;;15.08;96.38;100270.31;5910417;29;20403;-67
2023/08/31 08:21:45;;;;;;;6.90;3.70;;;;;;;14.78;99.71;100280.97;5910828;29;20072;-67
2023/08/31 08:24:40;;;;;;;8.07;3.87;;;;;;;14.62;99.90;100269.69;5913674;29;20068;-67
2023/08/31 08:27:36;;;;;;;7.83;4.00;;;;;;;14.86;100.00;100277.41;5913136;29;20032;-67
2023/08/31 08:30:32;;;;;;;11.05;3.78;;;;;;;14.77;99.06;100254.47;5908529;29;20528;-66
2023/08/31 08:33:27;;;;;;;4.53;3.03;;;;;;;15.06;95.73;100283.84;5912438;29;20040;-66
2023/08/31 08:36:22;;;;;;;6.07;3.10;;;;;;;14.92;96.38;100268.66;5913173;29;20044;-67
2023/08/31 08:39:18;;;;;;;4.97;2.97;;;;;;;14.91;95.45;100283.03;5913931;29;20843;-66
2023/08/31 08:42:13;;;;;;;5.13;3.03;;;;;;;14.93;96.57;100281.00;5921159;29;20288;-66
2023/08/31 08:45:16;;;;;;;7.07;3.40;;;;;;;15.02;96.24;100287.06;5909390;29;20383;-67
2023/08/31 08:48:12;;;;;;;6.30;3.58;;;;;;;15.27;94.93;100275.09;5910300;29;20064;-66
2023/08/31 08:51:07;;;;;;;5.23;2.90;;;;;;;15.14;91.84;100270.38;5893280;29;20044;-67
2023/08/31 08:54:03;;;;;;;6.43;3.08;;;;;;;14.92;94.81;100265.97;5911209;29;20044;-66
2023/08/31 08:56:58;;;;;;;5.85;3.13;;;;;;;14.76;97.42;100283.00;5909548;29;20068;-66
2023/08/31 08:59:53;;;;;;;7.90;3.37;;;;;;;14.69;98.52;100281.28;5924683;29;20822;-67
2023/08/31 09:02:49;;;;;;;5.40;3.20;;;;;;;15.07;97.72;100285.50;5910403;29;20049;-66
2023/08/31 09:05:44;;;;;;;5.43;3.00;;;;;;;15.52;93.73;100270.25;5914787;29;20035;-67
2023/08/31 09:08:41;;;;;;;5.57;2.63;;;;;;;16.22;91.97;100273.84;5913629;29;20047;-67
2023/08/31 09:11:36;;;;;;;5.55;2.63;;;;;;;16.54;86.52;100275.97;5910213;29;20037;-66
2023/08/31 09:14:31;;;;;;;4.43;2.40;;;;;;;16.53;84.44;100258.25;5905287;29;20040;-67
2023/08/31 09:17:38;;;;;;;3.97;2.30;;;;;;;17.22;83.80;100268.94;5906383;29;20083;-66
2023/08/31 09:20:49;;;;;;;6.15;3.00;;;;;;;17.02;82.92;100268.00;5907630;29;20384;-66
2023/08/31 09:23:47;;;;;;;4.95;2.50;;;;;;;16.56;82.49;100265.88;5909375;29;20060;-67
2023/08/31 09:26:47;;;;;;;5.97;2.40;;;;;;;16.36;86.26;100272.09;5909951;29;20032;-67
2023/08/31 09:29:46;;;;;;;5.78;2.35;;;;;;;15.99;85.48;100249.13;5909865;29;20029;-67
2023/08/31 09:32:43;;;;;;;5.30;2.80;;;;;;;15.67;87.44;100266.53;5909918;29;20113;-68
2023/08/31 09:35:42;;;;;;;6.30;2.95;;;;;;;15.58;89.93;100277.50;5908649;29;20046;-66
2023/08/31 09:38:43;;;;;;;5.20;2.60;;;;;;;15.56;92.96;100266.19;5910078;29;20043;-67
2023/08/31 09:41:54;;;;;;;4.40;2.60;;;;;;;15.92;93.41;100259.78;5909314;29;20048;-67
2023/08/31 09:44:50;;;;;;;5.93;2.80;;;;;;;16.28;90.55;100254.31;5907378;29;20067;-66
2023/08/31 09:47:45;;;;;;;4.47;2.60;;;;;;;16.94;84.78;100260.13;5909914;29;20029;-68
2023/08/31 09:50:43;;;;;;;5.18;2.33;;;;;;;17.45;83.20;100250.66;5923354;29;20340;-67
2023/08/31 09:53:39;;;;;;;5.60;2.28;;;;;;;17.12;79.64;100237.13;5907478;29;20025;-67
2023/08/31 09:56:34;;;;;;;4.15;2.33;;;;;;;16.92;81.79;100241.59;5908057;29;20032;-66
2023/08/31 09:59:30;;;;;;;6.90;2.60;;;;;;;16.94;82.11;100228.81;5895147;29;20087;-67
2023/08/31 10:02:26;;;;;;;5.05;2.22;;;;;;;16.99;83.07;100246.97;5923185;29;20092;-67
2023/08/31 10:05:22;;;;;;;5.28;1.95;;;;;;;16.90;84.88;100243.66;5892049;29;20387;-67
2023/08/31 10:08:18;;;;;;;3.42;2.50;;;;;;;16.99;82.20;100252.31;5909177;29;20033;-68
2023/08/31 10:11:15;;;;;;;6.20;2.42;;;;;;;16.88;82.01;100250.19;5909055;29;20048;-67
2023/08/31 10:14:11;;;;;;;3.65;2.17;;;;;;;16.67;85.27;100254.63;5892134;29;20037;-67
2023/08/31 10:17:06;;;;;;;5.07;2.47;;;;;;;16.55;82.09;100244.69;5916814;29;20064;-68
2023/08/31 10:20:02;;;;;;;4.55;2.22;;;;;;;16.34;82.71;100237.47;5895173;29;20051;-66
2023/08/31 10:22:58;;;;;;;5.65;2.80;;;;;;;16.39;84.03;100256.47;5894194;29;20033;-67
2023/08/31 10:25:54;;;;;;;4.65;2.22;;;;;;;16.31;83.16;100258.44;5908483;29;20041;-66
2023/08/31 10:28:49;;;;;;;6.60;2.50;;;;;;;16.31;83.21;100256.59;5907981;29;20116;-67
2023/08/31 10:31:47;;;;;;;5.15;2.30;;;;;;;16.58;83.52;100254.97;5896603;29;20029;-66
2023/08/31 10:34:44;;;;;;;5.47;2.15;;;;;;;16.50;83.06;100255.09;5910679;29;20476;-67
2023/08/31 10:37:40;;;;;;;6.00;2.40;;;;;;;16.23;83.93;100251.41;5907186;29;20436;-67
2023/08/31 10:40:35;;;;;;;5.03;2.20;;;;;;;16.47;85.78;100258.97;5908470;29;20115;-67
2023/08/31 10:43:47;;;;;;;3.93;2.30;;;;;;;16.99;81.74;100241.59;5908335;29;20499;-68
2023/08/31 10:46:44;;;;;;;6.43;2.20;;;;;;;17.14;80.71;100224.38;5909285;29;20652;-66
2023/08/31 10:49:50;;;;;;;4.53;2.83;;;;;;;17.42;77.52;100242.22;5913479;29;20044;-68
2023/08/31 10:52:45;;;;;;;7.55;2.67;;;;;;;17.64;76.88;100236.50;5913334;29;20037;-67
2023/08/31 10:55:51;;;;;;;5.05;2.50;;;;;;;17.71;74.62;100221.28;5912161;29;20032;-67
2023/08/31 10:58:58;;;;;;;4.07;2.08;;;;;;;18.32;75.32;100234.47;5923857;29;20044;-67
2023/08/31 11:01:57;;;;;;;3.22;2.15;;;;;;;18.24;71.97;100238.19;5912536;29;20037;-68
2023/08/31 11:05:15;;;;;;;7.35;2.35;;;;;;;18.09;70.83;100245.66;5910042;29;20172;-68
2023/08/31 11:08:10;;;;;;;3.80;2.10;;;;;;;18.17;73.74;100236.56;5905576;29;20064;-67
2023/08/31 11:11:06;;;;;;;3.60;2.00;;;;;;;18.50;71.30;100232.03;5912123;29;20036;-67
2023/08/31 11:14:01;;;;;;;3.90;1.80;;;;;;;18.86;72.14;100229.66;5913505;29;20500;-67
2023/08/31 11:16:57;;;;;;;5.60;3.20;;;;;;;18.29;70.94;100248.34;5911510;29;20041;-67
2023/08/31 11:19:52;;;;;;;8.05;2.70;;;;;;;18.35;71.29;100242.94;5911850;29;20044;-67
2023/08/31 11:22:49;;;;;;;3.97;2.40;;;;;;;18.48;70.54;100244.81;5911140;29;20084;-67
2023/08/31 11:25:44;;;;;;;3.58;2.13;;;;;;;18.58;69.68;100247.09;5910731;29;20494;-68
2023/08/31 11:28:43;;;;;;;5.47;2.37;;;;;;;17.71;70.22;100245.41;5911984;29;20039;-67
2023/08/31 11:31:40;;;;;;;4.95;2.28;;;;;;;17.31;74.90;100254.34;5911389;29;20054;-67
2023/08/31 11:34:36;;;;;;;4.82;2.50;;;;;;;17.67;76.96;100244.16;5911421;29;20047;-67
2023/08/31 11:37:32;;;;;;;4.22;2.60;;;;;;;17.70;74.18;100241.06;5910712;29;20033;-67
2023/08/31 11:40:28;;;;;;;4.25;2.25;;;;;;;17.97;76.70;100251.81;5918745;29;20036;-66
2023/08/31 11:43:23;;;;;;;3.83;2.40;;;;;;;17.82;72.33;100258.22;5918469;29;20111;-66
2023/08/31 11:46:19;;;;;;;5.43;2.65;;;;;;;17.46;72.42;100236.22;5893734;29;20523;-67
2023/08/31 11:49:14;;;;;;;6.13;2.70;;;;;;;17.68;70.78;100258.38;5911034;29;20120;-67
2023/08/31 11:52:11;;;;;;;4.63;2.50;;;;;;;18.03;69.08;100227.69;5911622;29;20355;-67
2023/08/31 11:55:14;;;;;;;4.50;2.20;;;;;;;18.82;69.43;100231.13;5897887;29;20033;-66
2023/08/31 11:58:09;;;;;;;4.85;2.30;;;;;;;18.91;61.68;100229.88;5923120;29;20037;-67
2023/08/31 12:01:05;;;;;;;4.23;1.93;;;;;;;19.07;60.82;100233.09;5910577;29;20088;-68
2023/08/31 12:04:00;;;;;;;3.47;1.98;;;;;;;19.47;59.72;100242.66;5909198;29;20276;-66
2023/08/31 12:07:01;;;;;;;4.30;2.23;;;;;;;19.56;58.41;100244.06;5910593;29;20040;-67
2023/08/31 12:10:03;;;;;;;4.55;2.60;;;;;;;19.34;59.96;100240.84;5908797;29;20080;-68
2023/08/31 12:13:11;;;;;;;5.40;2.88;;;;;;;19.74;60.61;100241.47;5910626;29;20096;-67
2023/08/31 12:16:13;;;;;;;4.25;2.25;;;;;;;19.52;58.49;100234.78;5909420;29;20055;-66
2023/08/31 12:19:09;;;;;;;4.35;2.45;;;;;;;19.22;59.52;100249.78;5910726;29;20064;-67
2023/08/31 12:22:07;;;;;;;4.35;2.20;;;;;;;19.63;60.95;100249.41;5914262;29;20067;-67
2023/08/31 12:25:03;;;;;;;5.95;2.40;;;;;;;19.82;60.76;100233.13;5910988;29;20087;-67
2023/08/31 12:27:58;;;;;;;4.85;2.20;;;;;;;19.88;58.48;100248.41;5910756;29;20381;-68
2023/08/31 12:30:56;;;;;;;5.47;2.30;;;;;;;19.58;57.85;100252.75;5910439;29;20071;-68
2023/08/31 12:33:51;;;;;;;3.83;2.17;;;;;;;19.45;58.29;100247.44;5909859;29;20778;-69
2023/08/31 12:36:46;;;;;;;4.77;2.30;;;;;;;19.69;58.67;100246.69;5910134;29;20043;-66
2023/08/31 12:39:44;;;;;;;4.07;2.33;;;;;;;19.15;58.88;100243.63;5913090;29;20047;-68
2023/08/31 12:42:40;;;;;;;5.03;1.95;;;;;;;18.82;60.86;100263.38;5911458;29;20502;-67
2023/08/31 12:45:36;;;;;;;4.85;2.05;;;;;;;18.48;59.29;100247.50;5910077;29;20068;-68
2023/08/31 12:48:32;;;;;;;5.78;1.95;;;;;;;18.95;58.73;100252.56;5910171;29;20056;-67
2023/08/31 12:51:29;;;;;;;4.43;1.80;;;;;;;18.85;58.91;100267.50;5910375;29;20073;-68
2023/08/31 12:54:24;;;;;;;4.65;1.98;;;;;;;19.02;58.02;100260.63;5910231;29;20048;-66
2023/08/31 12:57:19;;;;;;;4.77;1.80;;;;;;;18.65;59.01;100267.53;5909517;29;20044;-67
2023/08/31 13:00:15;;;;;;;2.95;1.70;;;;;;;18.65;60.75;100270.22;5916278;29;20063;-68
2023/08/31 13:03:10;;;;;;;2.90;1.60;;;;;;;18.65;58.22;100272.06;5919725;29;20035;-67
2023/08/31 13:06:06;;;;;;;2.87;1.70;;;;;;;18.08;60.51;100265.47;5909919;29;20052;-67
2023/08/31 13:09:03;;;;;;;3.15;1.73;;;;;;;18.17;61.89;100284.88;5909494;29;20108;-66
2023/08/31 13:11:58;;;;;;;4.65;2.00;;;;;;;18.92;61.09;100263.75;5908752;29;20647;-67
2023/08/31 13:14:53;;;;;;;3.95;1.90;;;;;;;18.89;59.99;100274.91;5908633;29;20044;-67
2023/08/31 13:17:49;;;;;;;4.47;1.83;;;;;;;18.60;60.40;100270.03;5917651;29;20087;-67
2023/08/31 13:20:51;;;;;;;5.03;1.67;;;;;;;18.32;60.84;100282.81;5909393;29;20176;-68
2023/08/31 13:23:47;;;;;;;3.65;1.60;;;;;;;18.34;61.90;100270.03;5902704;29;20601;-68
2023/08/31 13:26:47;;;;;;;5.63;1.92;;;;;;;18.22;64.17;100266.28;5909757;29;20047;-68
2023/08/31 13:29:43;;;;;;;4.72;1.20;;;;;;;17.98;68.01;100265.03;5909341;29;20043;-68
2023/08/31 13:32:38;;;;;;;3.80;1.50;;;;;;;17.78;69.07;100285.63;5909428;29;20039;-68
2023/08/31 13:35:34;;;;;;;3.65;1.13;;;;;;;17.63;68.12;100276.94;5908709;29;20052;-70
2023/08/31 13:38:29;;;;;;;1.52;1.00;;;;;;;17.55;70.17;100283.31;5909298;29;20029;-68
2023/08/31 13:41:25;;;;;;;2.80;0.90;;;;;;;17.70;70.53;100294.69;5909552;29;20037;-67
2023/08/31 13:44:20;;;;;;;1.00;0.77;;;;;;;17.95;69.01;100276.19;5910762;29;20037;-68
2023/08/31 13:47:16;;;;;;;1.35;0.80;;;;;;;17.62;68.83;100270.75;5909680;29;20276;-67
2023/08/31 13:50:11;;;;;;;3.23;1.00;;;;;;;17.55;68.17;100280.66;5909861;29;20051;-68
2023/08/31 13:53:06;;;;;;;2.30;0.97;;;;;;;17.50;69.69;100285.72;5911627;29;20053;-67
2023/08/31 13:56:02;;;;;;;1.40;0.77;;;;;;;17.49;70.28;100285.94;5908882;29;20121;-68
2023/08/31 13:58:58;;;;;;;2.80;0.90;;;;;;;17.23;71.78;100271.41;5909010;29;20425;-67
2023/08/31 14:01:54;;;;;;;5.13;1.17;;;;;;;16.47;84.27;100317.88;5913636;29;20056;-67
2023/08/31 14:04:49;;;;;;;7.18;1.58;;;;;;;15.03;96.92;100321.59;5910749;29;20496;-67
2023/08/31 14:07:45;;;;;;;2.90;0.90;;;;;;;14.28;100.00;100326.16;5908914;29;20182;-65
2023/08/31 14:10:40;;;;;;;4.07;1.20;;;;;;;13.83;100.00;100336.81;5908925;29;20381;-64
2023/08/31 14:13:35;;;;;;;1.85;0.88;;;;;;;13.51;100.00;100316.50;5908851;29;20502;-65
2023/08/31 14:16:32;;;;;;;1.90;0.83;;;;;;;13.83;100.00;100336.81;5908261;29;20050;-67
2023/08/31 14:19:27;;;;;;;1.10;0.60;;;;;;;14.11;100.00;100322.78;5909228;29;20032;-67
2023/08/31 14:22:23;;;;;;;2.10;0.57;;;;;;;14.41;100.00;100326.41;5910518;29;20044;-66
2023/08/31 14:25:18;;;;;;;2.13;0.82;;;;;;;14.67;100.00;100329.50;5916819;29;20543;-66
2023/08/31 14:28:13;;;;;;;1.37;0.60;;;;;;;14.82;100.00;100340.19;5918969;29;20044;-66
2023/08/31 14:31:09;;;;;;;3.03;0.60;;;;;;;15.02;100.00;100351.16;5912554;29;20037;-66
2023/08/31 14:34:04;;;;;;;0.87;0.50;;;;;;;15.25;99.74;100379.44;5912989;29;20080;-66
2023/08/31 14:37:00;;;;;;;0.85;0.40;;;;;;;15.13;100.00;100375.59;5915783;29;20032;-65
2023/08/31 14:39:56;;;;;;;2.63;0.32;;;;;;;14.92;100.00;100396.00;5921165;29;20123;-66
2023/08/31 14:42:51;;;;;;;1.63;0.50;;;;;;;14.71;100.00;100383.34;5917795;29;20043;-67
2023/08/31 14:45:47;;;;;;;1.67;0.50;;;;;;;14.79;100.00;100384.09;5912546;29;20032;-66
2023/08/31 14:48:43;;;;;;;0.98;0.43;;;;;;;14.52;97.30;100397.19;5913278;29;20036;-66
2023/08/31 14:51:38;;;;;;;2.03;0.65;;;;;;;14.82;98.57;100380.22;5913031;29;20472;-66
2023/08/31 14:54:34;;;;;;;1.30;0.33;;;;;;;15.74;97.48;100379.69;5911697;29;20045;-67
2023/08/31 14:57:30;;;;;;;0.22;0.20;;;;;;;16.06;94.28;100405.19;5912989;29;20051;-67
2023/08/31 15:00:25;;;;;;;1.00;0.45;;;;;;;16.23;92.65;100393.22;5912642;29;20210;-67
2023/08/31 15:03:22;;;;;;;2.80;0.60;;;;;;;16.81;88.02;100393.97;5910527;29;20048;-68
2023/08/31 15:06:17;;;;;;;0.57;0.40;;;;;;;17.29;87.96;100403.78;5915964;29;20562;-68
2023/08/31 15:09:12;;;;;;;0.80;0.33;;;;;;;18.08;79.73;100385.41;5916160;29;20036;-67
2023/08/31 15:12:08;;;;;;;1.53;0.60;;;;;;;19.11;74.19;100396.44;5912891;29;20045;-66
2023/08/31 15:15:05;;;;;;;0.98;0.50;;;;;;;19.41;72.35;100394.97;5911409;29;20071;-67
2023/08/31 15:18:00;;;;;;;2.55;0.60;;;;;;;18.80;68.89;100399.78;5910463;29;20111;-67
2023/08/31 15:20:56;;;;;;;1.33;0.70;;;;;;;17.93;76.83;100416.94;5911266;29;20032;-67
2023/08/31 15:23:51;;;;;;;1.50;0.50;;;;;;;16.99;78.90;100399.66;5907855;29;20555;-67
2023/08/31 15:26:46;;;;;;;1.83;0.50;;;;;;;16.66;82.04;100427.00;5911204;29;20536;-66
2023/08/31 15:29:42;;;;;;;0.88;0.32;;;;;;;16.48;83.03;100415.91;5912103;29;20273;-67
2023/08/31 15:32:37;;;;;;;1.23;0.40;;;;;;;16.48;86.24;100409.72;5911718;29;20025;-66
2023/08/31 15:35:33;;;;;;;2.15;0.90;;;;;;;16.41;86.47;100415.03;5913027;29;20756;-66
2023/08/31 15:38:28;;;;;;;4.07;0.45;;;;;;;16.29;85.37;100400.47;5911680;29;20040;-68
2023/08/31 15:41:24;;;;;;;2.85;0.68;;;;;;;16.35;85.36;100421.13;5911586;29;20088;-67
2023/08/31 15:44:19;;;;;;;1.30;0.60;;;;;;;16.70;84.41;100402.53;5911388;29;20047;-67
2023/08/31 15:47:14;;;;;;;0.63;0.45;;;;;;;17.06;83.99;100419.31;5911838;29;20503;-67
2023/08/31 15:50:10;;;;;;;7.43;0.83;;;;;;;17.02;82.37;100404.63;5912944;29;20416;-66
2023/08/31 15:53:06;;;;;;;1.45;0.60;;;;;;;16.98;82.60;100422.16;5880526;29;20051;-66
2023/08/31 15:56:01;;;;;;;2.95;0.57;;;;;;;16.58;83.03;100419.13;5914674;29;20555;-66
2023/08/31 15:58:58;;;;;;;1.65;0.50;;;;;;;16.30;85.97;100410.19;5914349;29;20032;-67
2023/08/31 16:01:53;;;;;;;2.63;0.52;;;;;;;16.26;86.39;100424.94;5914312;29;20044;-68
2023/08/31 16:04:48;;;;;;;1.33;0.57;;;;;;;16.20;86.66;100423.03;5911074;29;20052;-67
2023/08/31 16:07:44;;;;;;;2.13;0.47;;;;;;;16.20;86.46;100428.38;5911703;29;20079;-68
2023/08/31 16:10:39;;;;;;;1.58;0.63;;;;;;;16.16;85.29;100423.59;5911101;29;20052;-67
2023/08/31 16:13:35;;;;;;;2.73;0.60;;;;;;;16.07;85.32;100412.19;5910146;29;20073;-66
2023/08/31 16:16:31;;;;;;;1.60;0.60;;;;;;;16.15;84.26;100420.09;5922953;29;20387;-67
2023/08/31 16:19:27;;;;;;;2.35;0.70;;;;;;;16.04;82.99;100418.72;5919647;29;20048;-67
2023/08/31 16:22:22;;;;;;;1.57;0.50;;;;;;;15.94;84.12;100396.81;5915747;29;20495;-66
2023/08/31 16:25:17;;;;;;;2.97;0.90;;;;;;;15.94;87.17;100415.53;5909998;29;20032;-66
2023/08/31 16:28:13;;;;;;;2.57;0.80;;;;;;;15.84;90.83;100407.00;5910878;29;20039;-66
2023/08/31 16:31:08;;;;;;;2.53;0.90;;;;;;;15.69;92.06;100397.31;5918172;29;20261;-67
2023/08/31 16:34:04;;;;;;;6.25;1.35;;;;;;;15.74;92.54;100410.94;5909905;29;20044;-67
2023/08/31 16:36:59;;;;;;;4.13;1.00;;;;;;;15.71;93.36;100414.03;5912629;29;20037;-67
2023/08/31 16:39:54;;;;;;;2.93;0.90;;;;;;;15.68;94.22;100393.00;5910831;29;20168;-68
2023/08/31 16:42:49;;;;;;;2.83;0.80;;;;;;;15.71;92.06;100412.16;5909908;29;20041;-66
2023/08/31 16:45:45;;;;;;;4.40;0.80;;;;;;;15.65;91.82;100393.38;5908755;29;20475;-67
2023/08/31 16:48:40;;;;;;;4.43;0.80;;;;;;;15.68;92.41;100398.34;5910357;29;20044;-67
2023/08/31 16:51:38;;;;;;;1.52;0.75;;;;;;;15.76;91.92;100398.25;5910389;29;20032;-67
2023/08/31 16:54:33;;;;;;;2.83;0.88;;;;;;;15.82;91.61;100409.00;5909704;29;20028;-67
2023/08/31 16:57:28;;;;;;;1.10;0.70;;;;;;;15.96;90.13;100400.13;5909807;29;20487;-67
2023/08/31 17:00:24;;;;;;;2.35;0.80;;;;;;;16.14;90.24;100423.81;5919963;29;20035;-67
2023/08/31 17:03:19;;;;;;;1.53;0.70;;;;;;;16.09;89.13;100410.13;5910806;29;20711;-67
2023/08/31 17:06:14;;;;;;;2.10;0.77;;;;;;;16.09;88.98;100410.97;5906722;29;20115;-67
2023/08/31 17:09:10;;;;;;;2.03;0.70;;;;;;;15.94;89.48;100414.69;5905784;29;20052;-67
2023/08/31 17:12:06;;;;;;;2.63;0.90;;;;;;;15.78;90.78;100431.81;5905137;29;20463;-67
2023/08/31 17:15:03;;;;;;;4.72;1.30;;;;;;;15.49;91.37;100419.28;5906409;29;20126;-66
2023/08/31 17:17:59;;;;;;;2.33;0.77;;;;;;;15.34;93.83;100425.59;5907248;29;20135;-66
2023/08/31 17:20:54;;;;;;;2.13;0.63;;;;;;;15.08;95.61;100420.72;5908049;29;20037;-67
2023/08/31 17:23:49;;;;;;;2.50;1.00;;;;;;;15.02;97.08;100423.28;5907943;29;20028;-66
2023/08/31 17:26:44;;;;;;;8.17;0.83;;;;;;;14.87;98.93;100418.72;5910070;29;20040;-66
2023/08/31 17:29:40;;;;;;;4.53;0.87;;;;;;;14.71;100.00;100416.19;5910192;29;20403;-66
2023/08/31 17:32:35;;;;;;;0.97;0.63;;;;;;;14.60;100.00;100411.28;5909516;29;20037;-66
2023/08/31 17:35:31;;;;;;;2.80;1.00;;;;;;;14.43;100.00;100409.75;5920001;29;20036;-66
2023/08/31 17:38:26;;;;;;;2.35;0.90;;;;;;;14.35;100.00;100401.00;5909352;29;20439;-66
2023/08/31 17:41:22;;;;;;;2.13;0.70;;;;;;;14.47;100.00;100421.72;5919089;29;20064;-67
2023/08/31 17:44:17;;;;;;;4.53;1.00;;;;;;;14.49;100.00;100418.88;5909510;29;20305;-66
2023/08/31 17:47:12;;;;;;;2.07;0.70;;;;;;;14.37;100.00;100415.81;5909810;29;20051;-66
2023/08/31 17:50:08;;;;;;;2.53;0.83;;;;;;;14.50;100.00;100405.38;5920358;29;20368;-67
2023/08/31 17:53:04;;;;;;;2.38;0.60;;;;;;;14.34;100.00;100415.34;5895058;29;20336;-65
2023/08/31 17:55:59;;;;;;;3.88;0.80;;;;;;;14.15;100.00;100396.09;5923855;29;20070;-66
2023/08/31 17:58:56;;;;;;;2.38;1.23;;;;;;;14.08;100.00;100413.78;5914404;29;20063;-67
2023/08/31 18:01:51;;;;;;;2.22;0.68;;;;;;;14.01;100.00;100422.66;5913957;29;20480;-66
2023/08/31 18:04:47;;;;;;;4.40;0.80;;;;;;;14.01;100.00;100447.50;5913944;29;20063;-67
2023/08/31 18:07:42;;;;;;;3.00;0.67;;;;;;;13.79;100.00;100426.94;5914248;29;20407;-67
2023/08/31 18:10:37;;;;;;;4.10;0.67;;;;;;;13.88;100.00;100444.56;5914270;29;20036;-66
2023/08/31 18:13:33;;;;;;;3.03;0.80;;;;;;;13.80;100.00;100455.28;5913312;29;20118;-67
2023/08/31 18:16:28;;;;;;;5.07;1.13;;;;;;;13.71;100.00;100448.31;5913601;29;20029;-66
2023/08/31 18:19:24;;;;;;;2.67;0.80;;;;;;;13.55;100.00;100445.69;5914773;29;20056;-67
2023/08/31 18:22:19;;;;;;;2.60;0.87;;;;;;;13.47;100.00;100448.38;5914694;29;20033;-66
2023/08/31 18:25:17;;;;;;;3.30;0.73;;;;;;;13.47;100.00;100464.38;5911791;29;20367;-67
2023/08/31 18:28:13;;;;;;;2.88;1.02;;;;;;;13.24;100.00;100452.75;5913139;29;20025;-66
2023/08/31 18:31:10;;;;;;;2.63;1.10;;;;;;;13.31;100.00;100481.22;5913482;29;20043;-66
2023/08/31 18:34:05;;;;;;;3.63;1.10;;;;;;;13.13;100.00;100465.44;5912195;29;20657;-66
2023/08/31 18:37:00;;;;;;;2.03;1.10;;;;;;;13.07;100.00;100470.63;5912859;29;20047;-66
2023/08/31 18:39:56;;;;;;;2.23;1.00;;;;;;;13.07;100.00;100484.75;5914429;29;20029;-66
2023/08/31 18:42:51;;;;;;;2.47;1.10;;;;;;;12.94;100.00;100484.38;5914524;29;20029;-66
2023/08/31 18:45:47;;;;;;;2.27;1.17;;;;;;;12.86;100.00;100486.22;5913516;29;20408;-66
2023/08/31 18:48:42;;;;;;;2.65;0.98;;;;;;;12.85;100.00;100498.72;5896798;29;20276;-66
2023/08/31 18:51:43;;;;;;;5.60;1.50;;;;;;;12.80;100.00;100508.19;5914010;29;20041;-67
2023/08/31 18:54:38;;;;;;;3.25;1.38;;;;;;;12.76;100.00;100505.00;5922633;29;20518;-67
2023/08/31 18:57:34;;;;;;;2.75;1.05;;;;;;;12.70;100.00;100487.03;5915391;29;20044;-67
2023/08/31 19:00:29;;;;;;;2.83;1.10;;;;;;;12.80;100.00;100508.19;5914130;29;20048;-66
2023/08/31 19:03:26;;;;;;;3.72;1.10;;;;;;;12.74;100.00;100508.84;5913020;29;20032;-67
2023/08/31 19:06:21;;;;;;;1.90;1.05;;;;;;;12.59;100.00;100503.31;5913617;29;20068;-66
2023/08/31 19:09:16;;;;;;;3.03;1.37;;;;;;;12.63;100.00;100517.97;5912760;29;20444;-67
2023/08/31 19:12:12;;;;;;;2.83;1.17;;;;;;;12.54;100.00;100516.28;5912913;29;20265;-66
2023/08/31 19:15:07;;;;;;;2.00;1.23;;;;;;;12.64;100.00;100527.59;5927640;29;20381;-66
2023/08/31 19:18:04;;;;;;;4.20;1.30;;;;;;;12.57;100.00;100518.63;5920241;29;20284;-66
2023/08/31 19:21:01;;;;;;;3.75;1.30;;;;;;;12.54;100.00;100518.94;5912349;29;20041;-68
2023/08/31 19:23:57;;;;;;;3.05;1.20;;;;;;;12.47;100.00;100517.94;5912570;29;20040;-67
2023/08/31 19:26:52;;;;;;;3.65;1.27;;;;;;;12.49;100.00;100530.09;5912834;29;20037;-67
2023/08/31 19:29:47;;;;;;;2.77;1.57;;;;;;;12.40;100.00;100520.41;5913365;29;20377;-66
2023/08/31 19:32:43;;;;;;;3.20;1.10;;;;;;;12.39;100.00;100520.59;5912869;29;20036;-66
2023/08/31 19:35:38;;;;;;;2.20;1.35;;;;;;;12.37;100.00;100523.38;5912239;29;20087;-67
2023/08/31 19:38:36;;;;;;;2.73;1.70;;;;;;;12.40;100.00;100539.03;5912786;29;20043;-67
2023/08/31 19:41:31;;;;;;;2.22;1.30;;;;;;;12.33;100.00;100537.19;5912953;29;20064;-67
2023/08/31 19:44:26;;;;;;;3.17;1.52;;;;;;;12.26;100.00;100542.28;5911881;29;20092;-66
2023/08/31 19:47:22;;;;;;;2.40;1.40;;;;;;;12.23;100.00;100542.63;5915581;29;20044;-66
2023/08/31 19:50:17;;;;;;;3.13;1.42;;;;;;;12.16;100.00;100538.09;5921662;29;20067;-66
2023/08/31 19:53:13;;;;;;;2.88;1.50;;;;;;;12.12;100.00;100531.47;5917385;29;20036;-67
2023/08/31 19:56:09;;;;;;;5.80;1.92;;;;;;;12.11;100.00;100541.25;5908676;29;20048;-66
2023/08/31 19:59:07;;;;;;;3.93;1.67;;;;;;;12.11;100.00;100553.72;5909276;29;20053;-65
2023/08/31 20:02:03;;;;;;;3.55;1.65;;;;;;;11.99;100.00;100544.34;5909634;29;20029;-66
2023/08/31 20:04:58;;;;;;;4.82;2.08;;;;;;;11.93;100.00;100545.81;5910007;29;20163;-66
2023/08/31 20:07:53;;;;;;;4.33;1.83;;;;;;;11.93;100.00;100565.25;5909391;29;20044;-66
2023/08/31 20:10:49;;;;;;;5.10;2.08;;;;;;;11.94;100.00;100560.78;5908499;29;20424;-67
2023/08/31 20:13:44;;;;;;;5.80;2.20;;;;;;;11.97;100.00;100570.25;5909103;29;20403;-66
2023/08/31 20:16:39;;;;;;;6.73;2.30;;;;;;;11.91;100.00;100569.06;5908825;29;20299;-66
2023/08/31 20:19:35;;;;;;;4.00;2.00;;;;;;;11.87;100.00;100573.88;5908718;29;20292;-66
2023/08/31 20:22:30;;;;;;;5.90;2.50;;;;;;;11.82;100.00;100565.50;5910318;29;20115;-65
2023/08/31 20:25:26;;;;;;;3.70;2.10;;;;;;;11.87;100.00;100576.53;5910690;29;20048;-65
2023/08/31 20:28:21;;;;;;;5.43;2.03;;;;;;;11.77;100.00;100561.66;5911200;29;20048;-67
2023/08/31 20:31:16;;;;;;;3.43;2.20;;;;;;;11.84;100.00;100576.84;5911404;29;20068;-66
2023/08/31 20:34:11;;;;;;;6.30;2.10;;;;;;;11.74;100.00;100577.94;5911040;29;20354;-66
2023/08/31 20:37:07;;;;;;;4.83;2.60;;;;;;;11.68;100.00;100571.41;5911858;29;20040;-66
2023/08/31 20:40:08;;;;;;;4.73;2.47;;;;;;;11.69;100.00;100569.59;5916444;29;20032;-66
2023/08/31 20:43:04;;;;;;;4.10;2.40;;;;;;;11.68;100.00;100590.00;5913508;29;20280;-65
2023/08/31 20:46:07;;;;;;;4.28;2.28;;;;;;;11.76;100.00;100587.41;5910938;29;20096;-66
2023/08/31 20:49:05;;;;;;;4.25;2.60;;;;;;;11.64;100.00;100591.28;5911633;29;20036;-66